Página principal
METAR-TAF:

METAR-TAF

Aeroportos :

Sal, Cabo Verde

Aeroporto Internacional Amílcar Cabral

latitude: 16-44N, longitude: 022-57W, altura: 54 m

METAR: em falta

Hora: 21:32 (22:32 UTC)

Previsão

O boletim foi feito há 11 horas e 32 minutos, às 11:00 UTC
Previsão válida de 17 às 12 UTC a 18 às 18 UTC
Vento 18 kt de nordeste
Visibilidade 10 km ou mais
Nuvens dispersasa uma altura de 1400 ft
Temporariamente
de 17 às 12 UTC a 17 às 18 UTC
Vento 18 kt de nordeste com rajadas de 28 kt
Nuvens fragmentadasa uma altura de 1400 ft

TAF: GVAC 171100Z 1712/1818 05018KT 9999 SCT014 TEMPO 1712/1718 05018G28KT BKN014

Observações e previsões do tempo de mais de 4000 aeroportos (mensagens METAR e TAF).

As estações disponíveis são os pontos amarelos e vermelhos sobre o mapa.

Mova o rato sobre o mapa para ver o nome da estação.

Depois clique no ponto para visualizar as observações e previsões meteorológicas.

Para alterar o mapa : clique nos botões verdes com uma cruz preta para aumentar o zoom; no botão verde com uma pitada de zoom; ou nas setas verdes para mapas adjacentes.


METAR-TAF: